createdAt,value
2022-10-03T00:00:12.235Z,6.00
2022-10-03T00:04:45.358Z,6.40
2022-10-03T00:08:50.299Z,6.63
2022-10-03T00:13:06.502Z,6.13
2022-10-03T00:17:59.312Z,7.15
2022-10-03T00:22:13.112Z,6.47
2022-10-03T00:26:43.977Z,7.32
2022-10-03T00:31:01.256Z,7.28
2022-10-03T00:35:26.003Z,8.02
2022-10-03T00:39:50.233Z,8.48
2022-10-03T00:44:28.380Z,10.30
2022-10-03T00:49:04.520Z,9.43
2022-10-03T00:53:33.484Z,10.07
2022-10-03T00:58:00.677Z,11.85
2022-10-03T01:02:28.798Z,13.50
2022-10-03T01:06:43.418Z,12.88
2022-10-03T01:10:53.490Z,13.38
2022-10-03T01:15:10.344Z,12.77
2022-10-03T01:19:52.734Z,13.70
2022-10-03T01:24:07.540Z,14.27
2022-10-03T01:29:01.871Z,12.43
2022-10-03T01:33:13.100Z,12.80
2022-10-03T01:37:24.198Z,12.70
2022-10-03T01:41:35.104Z,13.05
2022-10-03T01:45:47.470Z,13.00
2022-10-03T01:49:56.514Z,12.98
2022-10-03T01:54:04.150Z,12.52
2022-10-03T01:58:17.857Z,11.65
2022-10-03T02:02:39.715Z,13.02
2022-10-03T02:06:53.667Z,12.52
2022-10-03T02:11:03.327Z,12.00
2022-10-03T02:15:05.784Z,11.48
2022-10-03T02:19:21.299Z,11.02
2022-10-03T02:23:26.220Z,11.18
2022-10-03T02:27:53.176Z,11.65
2022-10-03T02:32:31.794Z,8.48
2022-10-03T02:36:57.689Z,11.02
2022-10-03T02:41:45.668Z,11.02
2022-10-03T02:46:15.475Z,10.23
2022-10-03T02:50:23.525Z,10.98
2022-10-03T02:54:59.919Z,10.07
2022-10-03T02:59:23.911Z,10.77
2022-10-03T03:03:41.897Z,10.40
2022-10-03T03:08:25.809Z,11.55
2022-10-03T03:12:47.301Z,10.77
2022-10-03T03:17:10.762Z,10.52
2022-10-03T03:22:00.046Z,10.23
2022-10-03T03:26:17.323Z,9.52
2022-10-03T03:30:23.154Z,11.57
2022-10-03T03:34:34.341Z,10.70
2022-10-03T03:38:57.396Z,9.80
2022-10-03T03:43:19.625Z,9.80
2022-10-03T03:47:57.129Z,9.63
2022-10-03T03:51:59.060Z,9.90
2022-10-03T03:56:28.175Z,9.60
2022-10-03T04:00:48.463Z,10.40
2022-10-03T04:05:20.906Z,9.73
2022-10-03T04:10:00.715Z,9.88
2022-10-03T04:14:23.465Z,10.45
2022-10-03T04:19:04.523Z,10.70
2022-10-03T04:23:34.722Z,10.40
2022-10-03T04:27:42.628Z,10.30
2022-10-03T04:31:54.856Z,10.02
2022-10-03T04:36:24.641Z,10.88
2022-10-03T04:40:41.119Z,11.63
2022-10-03T04:45:01.895Z,10.48
2022-10-03T04:49:14.741Z,11.80
2022-10-03T04:53:34.601Z,10.77
2022-10-03T04:57:46.845Z,10.50
2022-10-03T05:02:35.025Z,10.95
2022-10-03T05:07:00.598Z,9.73
2022-10-03T05:11:38.145Z,9.63
2022-10-03T05:16:02.420Z,9.95
2022-10-03T05:20:27.052Z,8.98
2022-10-03T05:24:46.209Z,8.68
2022-10-03T05:28:59.939Z,7.15
2022-10-03T05:33:21.472Z,7.60
2022-10-03T05:37:42.315Z,7.80
2022-10-03T05:42:26.502Z,7.25
2022-10-03T05:46:37.100Z,6.72
2022-10-03T05:51:09.089Z,7.10
2022-10-03T05:55:28.905Z,7.25
2022-10-03T05:59:59.169Z,7.72
2022-10-03T06:04:13.087Z,9.02
2022-10-03T06:08:41.776Z,7.45
2022-10-03T06:13:07.805Z,7.78
2022-10-03T06:17:42.237Z,8.00
2022-10-03T06:22:33.672Z,8.40
2022-10-03T06:26:50.851Z,7.18
2022-10-03T06:31:32.521Z,8.25
2022-10-03T06:35:43.704Z,7.80
2022-10-03T06:40:24.119Z,9.05
2022-10-03T06:45:01.152Z,14.90
2022-10-03T06:49:28.040Z,32.55
2022-10-03T06:53:57.633Z,15.15
2022-10-03T06:58:27.172Z,9.90
2022-10-03T07:02:40.343Z,10.35
2022-10-03T07:06:59.298Z,9.88
2022-10-03T07:11:05.926Z,9.23
2022-10-03T07:15:43.921Z,9.30
2022-10-03T07:20:27.517Z,10.15
2022-10-03T07:25:07.181Z,9.23
2022-10-03T07:29:18.676Z,9.65
2022-10-03T07:33:52.928Z,9.05
2022-10-03T07:38:54.807Z,8.55
2022-10-03T07:43:30.948Z,8.80
2022-10-03T07:48:13.178Z,9.07
2022-10-03T07:52:24.468Z,9.07
2022-10-03T07:56:26.533Z,8.63
2022-10-03T08:00:56.609Z,8.52
2022-10-03T08:05:17.437Z,8.20
2022-10-03T08:09:33.360Z,8.27
2022-10-03T08:13:58.394Z,7.45
2022-10-03T08:18:25.202Z,6.53
2022-10-03T08:22:46.009Z,7.30
2022-10-03T08:26:47.942Z,5.97
2022-10-03T08:31:21.089Z,5.30
2022-10-03T08:35:29.398Z,6.55
2022-10-03T08:39:46.778Z,5.47
2022-10-03T08:44:06.952Z,4.22
2022-10-03T08:48:24.993Z,4.50
2022-10-03T08:52:48.221Z,4.65
2022-10-03T08:56:56.692Z,4.32
2022-10-03T09:01:17.263Z,4.50
2022-10-03T09:05:43.907Z,4.20
2022-10-03T09:10:20.509Z,3.80
2022-10-03T09:14:50.469Z,2.95
2022-10-03T09:19:09.101Z,2.40
2022-10-03T09:23:20.397Z,2.60
2022-10-03T09:27:25.229Z,2.30
2022-10-03T09:31:49.188Z,2.80
2022-10-03T09:36:34.743Z,2.38
2022-10-03T09:40:55.579Z,2.60
2022-10-03T09:45:26.002Z,2.70
2022-10-03T09:49:46.338Z,1.63
2022-10-03T09:54:07.315Z,1.50
2022-10-03T09:58:52.663Z,1.60
2022-10-03T10:03:24.193Z,1.60
2022-10-03T10:07:35.932Z,2.50
2022-10-03T10:12:05.583Z,2.83
2022-10-03T10:16:34.915Z,2.22
2022-10-03T10:21:11.600Z,2.08
2022-10-03T10:25:51.019Z,1.55
2022-10-03T10:30:26.244Z,2.00
2022-10-03T10:34:53.589Z,1.90
2022-10-03T10:39:28.015Z,2.08
2022-10-03T10:43:52.545Z,1.60
2022-10-03T10:47:57.653Z,1.60
2022-10-03T10:52:05.593Z,2.05
2022-10-03T10:56:45.336Z,1.73
2022-10-03T11:01:25.060Z,1.70
2022-10-03T11:05:43.373Z,1.77
2022-10-03T11:09:51.931Z,3.30
2022-10-03T11:14:06.155Z,1.15
2022-10-03T11:18:20.312Z,2.40
2022-10-03T11:22:37.576Z,3.22
2022-10-03T11:26:57.824Z,2.60
2022-10-03T11:31:18.729Z,2.83
2022-10-03T11:35:43.154Z,2.20
2022-10-03T11:40:05.541Z,2.15
2022-10-03T11:44:25.821Z,3.60
2022-10-03T11:48:46.821Z,1.70
2022-10-03T11:53:03.750Z,1.70
2022-10-03T11:57:20.347Z,3.00
2022-10-03T12:01:37.268Z,4.13
2022-10-03T12:05:52.777Z,6.32
2022-10-03T12:10:32.057Z,3.50
2022-10-03T12:14:47.296Z,2.05
2022-10-03T12:18:55.187Z,2.10
2022-10-03T12:23:19.215Z,1.80
2022-10-03T12:27:30.115Z,1.95
2022-10-03T12:31:42.375Z,1.60
2022-10-03T12:35:53.516Z,5.90
2022-10-03T12:40:21.811Z,1.90
2022-10-03T12:45:01.239Z,1.70
2022-10-03T12:49:10.953Z,1.75
2022-10-03T12:53:15.898Z,1.50
2022-10-03T12:57:39.464Z,1.88
2022-10-03T13:01:57.558Z,2.20
2022-10-03T13:07:04.725Z,2.10
2022-10-03T13:11:06.398Z,2.13
2022-10-03T13:15:43.022Z,2.30
2022-10-03T13:19:58.777Z,2.35
2022-10-03T13:24:36.761Z,1.83
2022-10-03T13:29:03.105Z,1.70
2022-10-03T13:33:17.535Z,2.03
2022-10-03T13:37:35.747Z,2.42
2022-10-03T13:42:10.305Z,2.22
2022-10-03T13:46:29.764Z,1.88
2022-10-03T13:51:01.842Z,2.60
2022-10-03T13:55:13.150Z,2.03
2022-10-03T13:59:29.420Z,2.55
2022-10-03T14:03:38.548Z,2.28
2022-10-03T14:07:55.287Z,2.20
2022-10-03T14:12:15.186Z,2.40
2022-10-03T14:16:40.995Z,1.90
2022-10-03T14:21:08.001Z,2.15
2022-10-03T14:25:16.084Z,2.27
2022-10-03T14:29:31.375Z,2.20
2022-10-03T14:33:36.136Z,1.85
2022-10-03T14:37:53.539Z,1.95
2022-10-03T14:41:55.497Z,2.30
2022-10-03T14:46:00.825Z,2.30
2022-10-03T14:50:05.443Z,2.22
2022-10-03T14:54:28.124Z,2.30
2022-10-03T14:58:38.209Z,2.40
2022-10-03T15:02:46.820Z,1.88
2022-10-03T15:06:56.318Z,2.50
2022-10-03T15:10:58.968Z,2.10
2022-10-03T15:15:15.696Z,2.22
2022-10-03T15:19:41.051Z,2.50
2022-10-03T15:23:45.519Z,2.17
2022-10-03T15:27:52.428Z,1.92
2022-10-03T15:31:57.972Z,2.38
2022-10-03T15:36:30.598Z,2.28
2022-10-03T15:40:35.653Z,2.20
2022-10-03T15:44:53.522Z,2.60
2022-10-03T15:48:55.835Z,2.17
2022-10-03T15:53:18.101Z,2.20
2022-10-03T15:57:29.703Z,2.70
2022-10-03T16:01:38.293Z,2.60
2022-10-03T16:05:56.427Z,2.45
2022-10-03T16:10:22.755Z,2.72
2022-10-03T16:14:31.087Z,2.63
2022-10-03T16:18:51.840Z,2.10
2022-10-03T16:22:57.200Z,2.40
2022-10-03T16:27:07.577Z,2.92
2022-10-03T16:31:29.749Z,2.50
2022-10-03T16:35:43.275Z,2.85
2022-10-03T16:39:53.463Z,3.15
2022-10-03T16:43:59.814Z,3.42
2022-10-03T16:48:29.028Z,2.65
2022-10-03T16:52:35.665Z,3.13
2022-10-03T16:56:44.289Z,2.83
2022-10-03T17:01:28.347Z,3.85
2022-10-03T17:05:25.181Z,3.30
2022-10-03T17:09:35.962Z,5.40
2022-10-03T17:13:51.388Z,5.35
2022-10-03T17:18:20.025Z,4.95
2022-10-03T17:22:31.095Z,5.30
2022-10-03T17:26:39.264Z,4.20
2022-10-03T17:30:52.471Z,5.03
2022-10-03T17:35:02.890Z,4.00
2022-10-03T17:39:16.934Z,3.20
2022-10-03T17:43:29.841Z,3.63
2022-10-03T17:47:55.954Z,3.35
2022-10-03T17:51:58.664Z,4.13
2022-10-03T17:56:11.431Z,4.80
2022-10-03T18:00:24.086Z,6.68
2022-10-03T18:04:39.012Z,4.93
2022-10-03T18:08:41.707Z,6.00
2022-10-03T18:12:45.350Z,6.57
2022-10-03T18:17:17.192Z,8.02
2022-10-03T18:21:45.693Z,4.88
2022-10-03T18:26:20.679Z,6.90
2022-10-03T18:30:49.466Z,6.47
2022-10-03T18:35:29.177Z,6.90
2022-10-03T18:39:36.538Z,6.00
2022-10-03T18:47:59.227Z,4.93
2022-10-03T18:52:17.434Z,5.63
2022-10-03T18:56:25.203Z,5.22
2022-10-03T19:00:31.373Z,5.78
2022-10-03T19:04:41.926Z,6.70
2022-10-03T19:08:51.354Z,7.22
2022-10-03T19:13:02.906Z,6.40
2022-10-03T19:17:26.245Z,6.97
2022-10-03T19:21:28.717Z,10.15
2022-10-03T19:25:31.570Z,5.90
2022-10-03T19:29:47.683Z,5.75
2022-10-03T19:33:52.665Z,5.28
2022-10-03T19:38:12.758Z,5.45
2022-10-03T19:42:26.404Z,11.30
2022-10-03T19:46:39.993Z,10.10
2022-10-03T19:50:42.167Z,7.30
2022-10-03T19:54:50.700Z,6.57
2022-10-03T19:59:15.272Z,5.78
2022-10-03T20:03:33.905Z,5.25
2022-10-03T20:07:55.161Z,4.60
2022-10-03T20:12:01.328Z,4.70
2022-10-03T20:16:04.389Z,4.90
2022-10-03T20:20:09.888Z,4.88
2022-10-03T20:24:23.387Z,4.63
2022-10-03T20:28:44.020Z,4.38
2022-10-03T20:32:46.644Z,4.97
2022-10-03T20:36:53.218Z,5.68
2022-10-03T20:41:09.862Z,5.37
2022-10-03T20:45:16.806Z,5.05
2022-10-03T20:49:28.303Z,5.05
2022-10-03T20:53:31.496Z,5.60
2022-10-03T20:57:44.557Z,6.07
2022-10-03T21:01:48.343Z,6.60
2022-10-03T21:05:53.601Z,7.82
2022-10-03T21:10:10.192Z,7.32
2022-10-03T21:14:24.619Z,6.80
2022-10-03T21:18:40.404Z,6.32
2022-10-03T21:22:43.837Z,7.30
2022-10-03T21:26:52.124Z,5.00
2022-10-03T21:31:02.784Z,6.03
2022-10-03T21:35:28.877Z,5.32
2022-10-03T21:39:54.926Z,4.32
2022-10-03T21:44:13.123Z,4.82
2022-10-03T21:48:32.562Z,5.75
2022-10-03T21:52:55.838Z,5.55
2022-10-03T21:57:25.668Z,5.60
2022-10-03T22:02:01.823Z,20.23
2022-10-03T22:06:22.499Z,12.77
2022-10-03T22:10:28.522Z,16.98
2022-10-03T22:14:54.021Z,13.07
2022-10-03T22:19:14.800Z,9.98
2022-10-03T22:23:38.161Z,7.53
2022-10-03T22:27:54.771Z,7.57
2022-10-03T22:32:06.682Z,9.68
2022-10-03T22:36:11.158Z,8.80
2022-10-03T22:40:13.443Z,7.22
2022-10-03T22:44:17.792Z,9.57
2022-10-03T22:48:28.811Z,6.70
2022-10-03T22:52:38.282Z,6.13
2022-10-03T22:56:48.255Z,6.22
2022-10-03T23:00:52.977Z,5.68
2022-10-03T23:05:20.378Z,4.38
2022-10-03T23:09:39.331Z,5.00
2022-10-03T23:13:43.989Z,5.10
2022-10-03T23:18:06.974Z,4.78
2022-10-03T23:22:23.182Z,5.72
2022-10-03T23:26:53.116Z,7.50
2022-10-03T23:30:55.284Z,7.25
2022-10-03T23:35:39.741Z,7.00
2022-10-03T23:39:44.468Z,6.97
2022-10-03T23:43:55.077Z,6.82
2022-10-03T23:48:08.348Z,6.70
2022-10-03T23:52:19.692Z,6.32
2022-10-03T23:56:21.627Z,5.80
